createdAt,value
2023-02-05T00:02:17.469Z,70.20
2023-02-05T00:04:44.888Z,70.40
2023-02-05T00:07:12.293Z,70.60
2023-02-05T00:09:41.026Z,70.30
2023-02-05T00:12:08.629Z,70.20
2023-02-05T00:14:36.297Z,70.20
2023-02-05T00:17:04.146Z,69.90
2023-02-05T00:19:31.447Z,69.60
2023-02-05T00:21:58.673Z,69.60
2023-02-05T00:24:26.021Z,69.30
2023-02-05T00:26:53.266Z,68.30
2023-02-05T00:29:20.528Z,68.50
2023-02-05T00:31:49.707Z,68.30
2023-02-05T00:34:17.569Z,68.00
2023-02-05T00:36:45.021Z,68.00
2023-02-05T00:39:14.247Z,67.80
2023-02-05T00:41:41.790Z,67.60
2023-02-05T00:44:09.075Z,66.80
2023-02-05T00:46:36.431Z,66.70
2023-02-05T00:49:04.020Z,66.50
2023-02-05T00:51:31.350Z,66.10
2023-02-05T00:53:58.589Z,66.10
2023-02-05T00:56:25.848Z,65.40
2023-02-05T00:58:53.751Z,65.20
2023-02-05T01:01:21.104Z,65.20
2023-02-05T01:03:48.405Z,65.10
2023-02-05T01:06:15.735Z,65.30
2023-02-05T01:08:43.158Z,64.90
2023-02-05T01:11:11.475Z,64.30
2023-02-05T01:13:39.782Z,63.60
2023-02-05T01:16:07.812Z,63.70
2023-02-05T01:18:35.116Z,63.70
2023-02-05T01:21:02.858Z,63.70
2023-02-05T01:23:30.162Z,63.80
2023-02-05T01:25:57.496Z,63.20
2023-02-05T01:28:24.822Z,63.50
2023-02-05T01:30:52.505Z,63.60
2023-02-05T01:33:19.902Z,62.90
2023-02-05T01:35:47.363Z,62.50
2023-02-05T01:38:15.668Z,62.60
2023-02-05T01:40:43.164Z,62.30
2023-02-05T01:43:16.812Z,62.10
2023-02-05T01:45:51.484Z,62.10
2023-02-05T01:48:32.635Z,62.30
2023-02-05T01:51:07.979Z,62.10
2023-02-05T01:53:37.482Z,62.10
2023-02-05T01:56:11.595Z,62.10
2023-02-05T01:58:52.060Z,62.00
2023-02-05T02:01:19.967Z,62.40
2023-02-05T02:03:50.425Z,62.50
2023-02-05T02:06:17.703Z,63.00
2023-02-05T02:08:45.028Z,63.10
2023-02-05T02:11:17.352Z,63.10
2023-02-05T02:13:47.954Z,63.20
2023-02-05T02:16:16.410Z,63.30
2023-02-05T02:18:44.953Z,63.70
2023-02-05T02:21:58.462Z,63.70
2023-02-05T02:24:48.768Z,64.00
2023-02-05T02:27:21.936Z,64.20
2023-02-05T02:30:00.679Z,64.40
2023-02-05T02:32:43.625Z,64.70
2023-02-05T02:35:28.580Z,64.50
2023-02-05T02:38:10.285Z,65.30
2023-02-05T02:41:13.569Z,64.60
2023-02-05T02:43:50.854Z,64.80
2023-02-05T02:46:32.002Z,65.20
2023-02-05T02:49:06.688Z,65.20
2023-02-05T02:51:39.657Z,65.00
2023-02-05T02:54:15.391Z,65.20
2023-02-05T02:56:45.098Z,65.20
2023-02-05T02:59:20.554Z,65.30
2023-02-05T03:01:56.777Z,65.20
2023-02-05T03:04:34.610Z,65.10
2023-02-05T03:07:35.033Z,65.30
2023-02-05T03:10:13.876Z,65.40
2023-02-05T03:12:41.260Z,65.10
2023-02-05T03:15:10.326Z,65.10
2023-02-05T03:17:40.044Z,65.10
2023-02-05T03:20:16.485Z,65.10
2023-02-05T03:22:43.777Z,65.00
2023-02-05T03:25:11.895Z,65.30
2023-02-05T03:27:39.529Z,65.20
2023-02-05T03:30:09.056Z,65.10
2023-02-05T03:33:10.002Z,65.20
2023-02-05T03:35:50.152Z,65.10
2023-02-05T03:38:38.952Z,65.30
2023-02-05T03:41:14.158Z,65.30
2023-02-05T03:43:54.772Z,65.40
2023-02-05T03:46:47.773Z,66.10
2023-02-05T03:49:54.911Z,66.30
2023-02-05T03:52:33.023Z,66.10
2023-02-05T03:55:23.770Z,66.00
2023-02-05T03:58:04.590Z,66.10
2023-02-05T04:00:32.992Z,66.20
2023-02-05T04:03:00.315Z,66.10
2023-02-05T04:05:27.540Z,66.30
2023-02-05T04:07:54.912Z,66.40
2023-02-05T04:10:22.179Z,66.30
2023-02-05T04:12:49.538Z,66.30
2023-02-05T04:15:17.070Z,66.20
2023-02-05T04:17:44.365Z,66.30
2023-02-05T04:20:12.176Z,66.20
2023-02-05T04:22:39.461Z,66.10
2023-02-05T04:25:07.241Z,65.90
2023-02-05T04:27:34.618Z,65.80
2023-02-05T04:30:01.984Z,65.50
2023-02-05T04:32:29.402Z,65.50
2023-02-05T04:34:56.675Z,65.30
2023-02-05T04:37:25.200Z,65.10
2023-02-05T04:39:52.419Z,65.00
2023-02-05T04:42:19.769Z,64.70
2023-02-05T04:44:47.100Z,64.50
2023-02-05T04:47:14.635Z,64.60
2023-02-05T04:49:42.005Z,64.70
2023-02-05T04:52:09.428Z,64.50
2023-02-05T04:54:39.650Z,64.40
2023-02-05T04:57:06.935Z,64.30
2023-02-05T04:59:34.348Z,64.30
2023-02-05T05:02:01.771Z,64.20
2023-02-05T05:04:29.218Z,64.30
2023-02-05T05:06:56.491Z,64.40
2023-02-05T05:09:25.131Z,64.40
2023-02-05T05:11:54.592Z,64.40
2023-02-05T05:14:22.953Z,64.30
2023-02-05T05:16:51.025Z,64.20
2023-02-05T05:19:18.278Z,64.30
2023-02-05T05:21:45.636Z,64.20
2023-02-05T05:24:12.903Z,64.30
2023-02-05T05:26:43.908Z,64.30
2023-02-05T05:29:15.236Z,64.40
2023-02-05T05:31:43.024Z,64.30
2023-02-05T05:34:10.313Z,64.30
2023-02-05T05:36:40.030Z,64.30
2023-02-05T05:39:26.142Z,64.20
2023-02-05T05:42:12.011Z,64.10
2023-02-05T05:44:39.267Z,64.10
2023-02-05T05:47:06.473Z,64.10
2023-02-05T05:49:33.808Z,64.10
2023-02-05T05:52:01.183Z,64.00
2023-02-05T05:54:28.516Z,64.10
2023-02-05T05:56:55.835Z,64.10
2023-02-05T05:59:23.183Z,64.20
2023-02-05T06:01:50.473Z,64.10
2023-02-05T06:04:17.786Z,64.10
2023-02-05T06:06:45.102Z,64.10
2023-02-05T06:09:12.328Z,64.10
2023-02-05T06:11:39.706Z,64.10
2023-02-05T06:14:07.001Z,64.10
2023-02-05T06:16:34.262Z,64.00
2023-02-05T06:19:01.593Z,64.10
2023-02-05T06:21:28.825Z,64.20
2023-02-05T06:23:56.130Z,64.30
2023-02-05T06:26:23.585Z,64.30
2023-02-05T06:28:50.866Z,64.40
2023-02-05T06:31:18.442Z,64.40
2023-02-05T06:33:45.728Z,64.40
2023-02-05T06:36:13.014Z,64.40
2023-02-05T06:38:40.247Z,64.40
2023-02-05T06:41:07.551Z,64.30
2023-02-05T06:43:34.819Z,64.40
2023-02-05T06:46:02.125Z,64.40
2023-02-05T06:48:29.369Z,64.40
2023-02-05T06:50:56.662Z,64.40
2023-02-05T06:53:23.930Z,64.30
2023-02-05T06:55:51.234Z,64.20
2023-02-05T06:58:18.516Z,64.10
2023-02-05T07:00:46.263Z,64.20
2023-02-05T07:03:13.599Z,64.20
2023-02-05T07:05:40.961Z,64.20
2023-02-05T07:08:08.291Z,64.20
2023-02-05T07:10:35.609Z,64.30
2023-02-05T07:13:05.554Z,64.30
2023-02-05T07:15:36.421Z,64.10
2023-02-05T07:18:05.444Z,64.30
2023-02-05T07:20:32.702Z,64.40
2023-02-05T07:23:00.487Z,64.40
2023-02-05T07:25:28.213Z,64.40
2023-02-05T07:27:55.827Z,64.30
2023-02-05T07:30:23.174Z,64.40
2023-02-05T07:32:50.476Z,64.20
2023-02-05T07:35:17.936Z,64.20
2023-02-05T07:37:45.221Z,64.40
2023-02-05T07:40:12.897Z,64.30
2023-02-05T07:42:40.132Z,64.10
2023-02-05T07:45:07.980Z,64.30
2023-02-05T07:47:35.375Z,64.20
2023-02-05T07:50:04.727Z,64.00
2023-02-05T07:52:33.350Z,64.10
2023-02-05T07:55:00.716Z,64.10
2023-02-05T07:57:28.138Z,64.00
2023-02-05T07:59:55.456Z,64.00
2023-02-05T08:02:22.874Z,63.70
2023-02-05T08:04:50.099Z,63.80
2023-02-05T08:07:17.664Z,63.80
2023-02-05T08:09:45.099Z,63.80
2023-02-05T08:12:12.399Z,63.60
2023-02-05T08:14:40.576Z,63.20
2023-02-05T08:17:07.727Z,63.00
2023-02-05T08:19:35.108Z,63.30
2023-02-05T08:22:02.416Z,64.00
2023-02-05T08:24:31.636Z,62.90
2023-02-05T08:26:59.054Z,63.30
2023-02-05T08:29:26.502Z,62.70
2023-02-05T08:31:53.939Z,62.60
2023-02-05T08:34:21.265Z,62.80
2023-02-05T08:36:48.658Z,61.80
2023-02-05T08:39:16.139Z,62.30
2023-02-05T08:41:44.646Z,62.60
2023-02-05T08:44:14.134Z,62.10
2023-02-05T08:46:50.195Z,61.70
2023-02-05T08:49:18.332Z,62.20
2023-02-05T08:51:45.804Z,62.20
2023-02-05T08:54:15.251Z,61.90
2023-02-05T08:56:49.707Z,61.30
2023-02-05T08:59:17.041Z,61.60
2023-02-05T09:01:45.690Z,61.70
2023-02-05T09:04:16.868Z,61.00
2023-02-05T09:06:48.274Z,60.60
2023-02-05T09:09:16.097Z,61.10
2023-02-05T09:11:46.175Z,61.10
2023-02-05T09:14:15.542Z,61.10
2023-02-05T09:16:42.911Z,61.00
2023-02-05T09:19:10.301Z,61.10
2023-02-05T09:21:38.313Z,60.10
2023-02-05T09:24:06.266Z,59.80
2023-02-05T09:26:37.472Z,58.90
2023-02-05T09:29:05.073Z,58.90
2023-02-05T09:31:32.610Z,58.80
2023-02-05T09:34:03.954Z,59.10
2023-02-05T09:36:33.202Z,59.20
2023-02-05T09:39:15.001Z,59.00
2023-02-05T09:41:59.344Z,58.50
2023-02-05T09:45:10.685Z,58.00
2023-02-05T09:48:31.142Z,58.20
2023-02-05T09:51:00.101Z,58.10
2023-02-05T09:53:43.075Z,57.50
2023-02-05T09:56:14.561Z,57.00
2023-02-05T09:58:51.392Z,56.20
2023-02-05T10:01:47.675Z,56.30
2023-02-05T10:04:15.834Z,56.80
2023-02-05T10:07:24.454Z,56.20
2023-02-05T10:10:26.662Z,56.20
2023-02-05T10:13:19.428Z,54.70
2023-02-05T10:16:25.646Z,53.10
2023-02-05T10:19:37.492Z,53.80
2023-02-05T10:22:24.112Z,54.20
2023-02-05T10:25:25.048Z,52.40
2023-02-05T10:28:12.288Z,53.60
2023-02-05T10:31:10.240Z,52.80
2023-02-05T10:34:03.582Z,52.60
2023-02-05T10:36:31.314Z,50.10
2023-02-05T10:38:59.891Z,50.50
2023-02-05T10:41:39.396Z,50.30
2023-02-05T10:44:40.357Z,50.70
2023-02-05T10:47:47.104Z,50.80
2023-02-05T10:50:53.813Z,51.30
2023-02-05T10:53:27.387Z,51.40
2023-02-05T10:55:58.076Z,50.90
2023-02-05T10:58:45.502Z,50.90
2023-02-05T11:01:51.299Z,50.20
2023-02-05T11:04:50.058Z,49.70
2023-02-05T11:07:33.187Z,49.10
2023-02-05T11:13:59.058Z,49.10
2023-02-05T11:16:45.923Z,49.90
2023-02-05T11:19:29.659Z,49.10
2023-02-05T11:22:00.777Z,49.00
2023-02-05T11:24:40.526Z,48.70
2023-02-05T11:27:33.125Z,48.00
2023-02-05T11:30:52.048Z,47.60
2023-02-05T11:33:39.961Z,48.40
2023-02-05T11:36:21.757Z,47.60
2023-02-05T11:39:00.664Z,47.90
2023-02-05T11:41:48.435Z,47.70
2023-02-05T11:44:35.705Z,48.20
2023-02-05T11:47:03.556Z,48.00
2023-02-05T11:49:41.740Z,47.30
2023-02-05T11:52:12.044Z,47.00
2023-02-05T11:54:44.335Z,47.60
2023-02-05T11:57:20.578Z,47.70
2023-02-05T12:00:00.040Z,48.00
2023-02-05T12:02:30.056Z,47.70
2023-02-05T12:05:12.521Z,46.60
2023-02-05T12:08:25.343Z,46.10
2023-02-05T12:11:19.659Z,46.20
2023-02-05T12:13:57.343Z,45.60
2023-02-05T12:16:48.333Z,45.20
2023-02-05T12:19:19.739Z,46.30
2023-02-05T12:21:52.823Z,46.80
2023-02-05T12:24:31.634Z,46.80
2023-02-05T12:27:14.872Z,44.80
2023-02-05T12:29:48.023Z,45.20
2023-02-05T12:32:15.099Z,45.10
2023-02-05T12:35:11.733Z,45.60
2023-02-05T12:38:12.400Z,45.10
2023-02-05T12:41:08.896Z,45.30
2023-02-05T12:44:25.035Z,45.60
2023-02-05T12:47:21.444Z,45.40
2023-02-05T12:50:15.841Z,44.90
2023-02-05T12:52:59.176Z,45.10
2023-02-05T12:56:03.822Z,44.90
2023-02-05T12:58:42.612Z,45.70
2023-02-05T13:01:33.843Z,45.70
2023-02-05T13:04:02.632Z,45.60
2023-02-05T13:06:38.670Z,46.00
2023-02-05T13:09:16.075Z,46.00
2023-02-05T13:12:20.187Z,45.90
2023-02-05T13:15:07.022Z,46.30
2023-02-05T13:17:40.747Z,46.70
2023-02-05T13:20:19.848Z,46.00
2023-02-05T13:23:15.225Z,45.90
2023-02-05T13:26:04.613Z,46.50
2023-02-05T13:28:40.389Z,46.60
2023-02-05T13:31:30.845Z,46.90
2023-02-05T13:34:03.770Z,47.10
2023-02-05T13:36:39.703Z,47.20
2023-02-05T13:39:22.645Z,47.00
2023-02-05T13:42:25.614Z,46.40
2023-02-05T13:45:04.767Z,45.60
2023-02-05T13:48:02.000Z,45.50
2023-02-05T13:50:49.814Z,44.50
2023-02-05T13:53:31.055Z,44.00
2023-02-05T13:56:25.911Z,44.70
2023-02-05T13:59:00.795Z,45.00
2023-02-05T14:01:41.121Z,45.30
2023-02-05T14:04:25.028Z,45.30
2023-02-05T14:07:00.272Z,45.10
2023-02-05T14:09:38.110Z,45.40
2023-02-05T14:12:22.878Z,45.80
2023-02-05T14:15:20.532Z,45.70
2023-02-05T14:17:47.781Z,46.10
2023-02-05T14:20:24.499Z,46.20
2023-02-05T14:22:57.997Z,44.60
2023-02-05T14:25:42.819Z,44.60
2023-02-05T14:28:15.836Z,44.70
2023-02-05T14:31:00.105Z,45.00
2023-02-05T14:33:42.102Z,45.10
2023-02-05T14:36:15.438Z,45.50
2023-02-05T14:38:45.366Z,45.40
2023-02-05T14:41:16.324Z,45.70
2023-02-05T14:43:46.651Z,46.10
2023-02-05T14:46:37.601Z,46.40
2023-02-05T14:49:07.304Z,46.70
2023-02-05T14:51:39.406Z,47.10
2023-02-05T14:54:16.289Z,47.40
2023-02-05T14:56:49.219Z,47.80
2023-02-05T14:59:30.785Z,47.90
2023-02-05T15:02:00.201Z,47.90
2023-02-05T15:04:43.538Z,48.40
2023-02-05T15:07:20.292Z,48.60
2023-02-05T15:09:57.311Z,48.60
2023-02-05T15:12:39.628Z,48.50
2023-02-05T15:15:35.737Z,48.50
2023-02-05T15:18:12.461Z,48.50
2023-02-05T15:20:41.514Z,48.50
2023-02-05T15:23:46.407Z,48.80
2023-02-05T15:26:35.148Z,48.70
2023-02-05T15:29:21.669Z,48.80
2023-02-05T15:31:52.132Z,49.00
2023-02-05T15:34:42.196Z,48.80
2023-02-05T15:37:09.410Z,49.30
2023-02-05T15:39:49.466Z,49.30
2023-02-05T15:42:41.409Z,49.30
2023-02-05T15:45:24.634Z,49.40
2023-02-05T15:48:25.024Z,49.40
2023-02-05T15:51:34.813Z,49.50
2023-02-05T15:54:04.247Z,49.70
2023-02-05T15:56:42.237Z,50.40
2023-02-05T15:59:20.235Z,50.10
2023-02-05T16:01:51.519Z,50.30
2023-02-05T16:04:18.784Z,50.40
2023-02-05T16:06:46.795Z,50.40
2023-02-05T16:09:22.260Z,50.50
2023-02-05T16:11:50.933Z,50.40
2023-02-05T16:14:22.953Z,50.90
2023-02-05T16:17:25.212Z,50.70
2023-02-05T16:20:04.288Z,51.20
2023-02-05T16:22:45.248Z,51.20
2023-02-05T16:25:30.554Z,51.20
2023-02-05T16:28:01.256Z,51.60
2023-02-05T16:30:40.936Z,51.80
2023-02-05T16:33:21.283Z,52.10
2023-02-05T16:35:48.916Z,52.70
2023-02-05T16:38:18.818Z,52.80
2023-02-05T16:40:50.725Z,52.70
2023-02-05T16:43:37.344Z,52.50
2023-02-05T16:46:07.681Z,52.50
2023-02-05T16:48:44.009Z,52.50
2023-02-05T16:51:46.008Z,53.20
2023-02-05T16:54:13.207Z,54.30
2023-02-05T16:57:16.053Z,53.20
2023-02-05T16:59:49.357Z,54.20
2023-02-05T17:02:27.673Z,54.20
2023-02-05T17:04:57.823Z,54.10
2023-02-05T17:07:26.213Z,54.20
2023-02-05T17:10:05.048Z,54.40
2023-02-05T17:12:40.946Z,54.60
2023-02-05T17:15:14.082Z,54.70
2023-02-05T17:17:52.894Z,54.90
2023-02-05T17:20:23.545Z,54.90
2023-02-05T17:23:05.720Z,55.20
2023-02-05T17:25:55.814Z,55.30
2023-02-05T17:28:28.020Z,55.20
2023-02-05T17:31:00.333Z,55.80
2023-02-05T17:33:29.802Z,56.10
2023-02-05T17:35:57.081Z,56.30
2023-02-05T17:38:27.625Z,56.30
2023-02-05T17:41:14.700Z,56.30
2023-02-05T17:43:41.933Z,56.40
2023-02-05T17:46:14.651Z,56.30
2023-02-05T17:48:42.013Z,56.20
2023-02-05T17:51:18.402Z,56.10
2023-02-05T17:53:46.402Z,56.20
2023-02-05T17:56:14.603Z,56.30
2023-02-05T17:58:42.052Z,56.20
2023-02-05T18:01:12.467Z,55.90
2023-02-05T18:03:40.762Z,56.00
2023-02-05T18:06:09.475Z,56.00
2023-02-05T18:08:37.233Z,55.80
2023-02-05T18:11:04.888Z,55.80
2023-02-05T18:13:36.905Z,55.90
2023-02-05T18:16:04.752Z,55.90
2023-02-05T18:18:33.032Z,55.80
2023-02-05T18:21:00.538Z,55.90
2023-02-05T18:23:29.523Z,55.80
2023-02-05T18:25:58.372Z,55.80
2023-02-05T18:28:26.484Z,55.70
2023-02-05T18:31:02.109Z,55.80
2023-02-05T18:33:29.863Z,55.60
2023-02-05T18:36:07.268Z,55.60
2023-02-05T18:38:35.825Z,55.60
2023-02-05T18:41:16.593Z,55.60
2023-02-05T18:43:45.474Z,55.80
2023-02-05T18:46:16.058Z,55.90
2023-02-05T18:48:45.798Z,56.00
2023-02-05T18:51:19.019Z,56.00
2023-02-05T18:53:47.601Z,56.00
2023-02-05T18:56:34.628Z,56.00
2023-02-05T18:59:06.214Z,55.90
2023-02-05T19:01:37.095Z,56.00
2023-02-05T19:04:15.800Z,56.20
2023-02-05T19:06:53.532Z,56.30
2023-02-05T19:09:22.840Z,56.20
2023-02-05T19:11:52.925Z,56.30
2023-02-05T19:14:21.766Z,56.30
2023-02-05T19:16:50.129Z,56.60
2023-02-05T19:19:21.098Z,56.50
2023-02-05T19:22:02.176Z,56.60
2023-02-05T19:24:29.426Z,56.70
2023-02-05T19:26:58.957Z,56.80
2023-02-05T19:29:26.447Z,57.50
2023-02-05T19:31:53.897Z,57.00
2023-02-05T19:34:22.235Z,57.20
2023-02-05T19:36:49.640Z,57.50
2023-02-05T19:39:16.792Z,57.60
2023-02-05T19:41:48.406Z,57.50
2023-02-05T19:44:15.559Z,57.70
2023-02-05T19:46:44.388Z,57.60
2023-02-05T19:49:14.738Z,57.50
2023-02-05T19:51:45.880Z,57.70
2023-02-05T19:54:14.996Z,57.70
2023-02-05T19:56:43.576Z,57.60
2023-02-05T19:59:11.633Z,57.70
2023-02-05T20:01:41.081Z,57.60
2023-02-05T20:04:17.619Z,57.60
2023-02-05T20:06:46.543Z,57.80
2023-02-05T20:09:15.344Z,57.60
2023-02-05T20:11:45.026Z,57.50
2023-02-05T20:14:12.979Z,57.40
2023-02-05T20:16:40.439Z,57.40
2023-02-05T20:19:10.642Z,57.50
2023-02-05T20:21:38.617Z,57.70
2023-02-05T20:24:08.423Z,57.70
2023-02-05T20:26:36.742Z,57.60
2023-02-05T20:29:23.241Z,57.60
2023-02-05T20:31:52.403Z,57.60
2023-02-05T20:34:22.661Z,57.70
2023-02-05T20:36:52.709Z,57.60
2023-02-05T20:39:20.970Z,57.60
2023-02-05T20:41:50.049Z,57.40
2023-02-05T20:44:18.336Z,57.50
2023-02-05T20:46:45.890Z,57.40
2023-02-05T20:49:13.600Z,57.40
2023-02-05T20:51:44.103Z,57.10
2023-02-05T20:54:11.290Z,57.10
2023-02-05T20:56:38.721Z,57.10
2023-02-05T20:59:07.965Z,57.00
2023-02-05T21:01:36.921Z,57.10
2023-02-05T21:04:06.079Z,57.20
2023-02-05T21:06:37.731Z,57.20
2023-02-05T21:09:06.430Z,57.20
2023-02-05T21:11:33.880Z,57.40
2023-02-05T21:14:03.607Z,57.20
2023-02-05T21:16:30.952Z,57.40
2023-02-05T21:18:58.189Z,57.20
2023-02-05T21:21:36.236Z,57.50
2023-02-05T21:24:08.554Z,57.30
2023-02-05T21:26:41.051Z,57.30
2023-02-05T21:29:11.885Z,57.60
2023-02-05T21:31:44.774Z,57.80
2023-02-05T21:34:23.916Z,57.70
2023-02-05T21:36:52.868Z,57.50
2023-02-05T21:39:23.117Z,57.70
2023-02-05T21:41:54.251Z,57.70
2023-02-05T21:44:21.719Z,57.80
2023-02-05T21:46:49.036Z,57.80
2023-02-05T21:49:16.308Z,57.60
2023-02-05T21:51:43.525Z,57.70
2023-02-05T21:54:11.441Z,57.70
2023-02-05T21:56:41.584Z,57.60
2023-02-05T21:59:11.038Z,57.60
2023-02-05T22:01:38.730Z,57.60
2023-02-05T22:04:10.603Z,57.60
2023-02-05T22:06:38.306Z,57.70
2023-02-05T22:09:08.506Z,57.60
2023-02-05T22:11:35.781Z,57.90
2023-02-05T22:14:02.991Z,57.80
2023-02-05T22:16:32.543Z,57.70
2023-02-05T22:19:00.570Z,58.20
2023-02-05T22:21:30.400Z,57.90
2023-02-05T22:23:59.412Z,57.90
2023-02-05T22:26:29.472Z,57.80
2023-02-05T22:28:59.339Z,57.80
2023-02-05T22:31:28.245Z,57.80
2023-02-05T22:33:55.788Z,58.00
2023-02-05T22:36:25.707Z,58.00
2023-02-05T22:38:53.781Z,58.10
2023-02-05T22:41:26.448Z,58.30
2023-02-05T22:43:54.710Z,58.50
2023-02-05T22:46:24.634Z,58.70
2023-02-05T22:48:52.811Z,58.30
2023-02-05T22:51:26.582Z,58.10
2023-02-05T22:53:54.450Z,58.70
2023-02-05T22:56:22.105Z,58.00
2023-02-05T22:58:50.550Z,57.90
2023-02-05T23:01:28.459Z,58.20
2023-02-05T23:03:56.754Z,58.30
2023-02-05T23:06:37.946Z,58.30
2023-02-05T23:09:16.323Z,58.40
2023-02-05T23:11:44.458Z,58.10
2023-02-05T23:14:13.856Z,58.10
2023-02-05T23:16:43.904Z,58.10
2023-02-05T23:19:16.798Z,58.30
2023-02-05T23:21:49.591Z,58.70
2023-02-05T23:24:19.798Z,58.60
2023-02-05T23:26:53.909Z,58.90
2023-02-05T23:29:21.526Z,58.90
2023-02-05T23:31:49.097Z,59.30
2023-02-05T23:34:16.354Z,58.80
2023-02-05T23:36:43.459Z,58.90
2023-02-05T23:39:10.637Z,59.20
2023-02-05T23:41:37.942Z,59.40
2023-02-05T23:44:08.372Z,59.50
2023-02-05T23:46:36.868Z,59.30
2023-02-05T23:49:05.326Z,59.20
2023-02-05T23:51:32.814Z,59.10
2023-02-05T23:54:00.177Z,59.50
2023-02-05T23:56:27.536Z,59.70
2023-02-05T23:58:55.949Z,59.90
